createdAt,value
2023-08-23T00:00:19.502Z,91.92
2023-08-23T00:02:47.717Z,92.04
2023-08-23T00:05:15.984Z,92.18
2023-08-23T00:07:44.819Z,92.17
2023-08-23T00:10:13.327Z,91.83
2023-08-23T00:12:41.575Z,91.72
2023-08-23T00:15:10.105Z,91.85
2023-08-23T00:17:38.321Z,91.85
2023-08-23T00:20:07.013Z,92.37
2023-08-23T00:22:40.685Z,92.33
2023-08-23T00:25:11.290Z,92.18
2023-08-23T00:27:39.514Z,92.27
2023-08-23T00:30:08.280Z,92.15
2023-08-23T00:32:36.217Z,92.28
2023-08-23T00:35:06.625Z,91.86
2023-08-23T00:37:35.701Z,92.04
2023-08-23T00:40:05.691Z,92.04
2023-08-23T00:42:41.665Z,92.14
2023-08-23T00:45:10.569Z,92.08
2023-08-23T00:47:39.177Z,92.20
2023-08-23T00:50:07.760Z,92.17
2023-08-23T00:52:47.205Z,92.20
2023-08-23T00:55:20.738Z,92.30
2023-08-23T00:57:49.338Z,92.30
2023-08-23T01:00:18.393Z,92.09
2023-08-23T01:02:46.952Z,92.30
2023-08-23T01:05:16.499Z,92.33
2023-08-23T01:08:17.580Z,92.43
2023-08-23T01:11:06.101Z,92.43
2023-08-23T01:13:54.544Z,92.79
2023-08-23T01:16:24.950Z,93.25
2023-08-23T01:18:57.061Z,92.89
2023-08-23T01:21:34.174Z,93.20
2023-08-23T01:24:09.431Z,92.75
2023-08-23T01:26:41.575Z,92.76
2023-08-23T01:29:09.920Z,92.91
2023-08-23T01:31:44.468Z,92.98
2023-08-23T01:34:27.736Z,93.20
2023-08-23T01:36:58.232Z,93.32
2023-08-23T01:39:27.746Z,93.41
2023-08-23T01:41:56.889Z,93.30
2023-08-23T01:44:25.231Z,93.17
2023-08-23T01:46:53.527Z,93.28
2023-08-23T01:49:21.832Z,93.08
2023-08-23T01:51:50.076Z,92.75
2023-08-23T01:54:19.441Z,92.66
2023-08-23T01:56:47.688Z,93.08
2023-08-23T01:59:15.926Z,92.84
2023-08-23T02:01:44.219Z,92.95
2023-08-23T02:04:15.338Z,93.10
2023-08-23T02:06:45.368Z,93.25
2023-08-23T02:09:13.596Z,93.10
2023-08-23T02:11:41.842Z,92.78
2023-08-23T02:14:10.075Z,92.98
2023-08-23T02:16:38.287Z,92.61
2023-08-23T02:19:06.557Z,92.76
2023-08-23T02:21:35.600Z,93.01
2023-08-23T02:24:03.901Z,92.81
2023-08-23T02:26:32.337Z,92.95
2023-08-23T02:29:00.505Z,93.00
2023-08-23T02:31:29.078Z,92.99
2023-08-23T02:33:57.366Z,93.10
2023-08-23T02:36:26.438Z,93.60
2023-08-23T02:38:56.330Z,93.37
2023-08-23T02:41:24.686Z,93.50
2023-08-23T02:43:53.767Z,93.25
2023-08-23T02:46:22.051Z,93.16
2023-08-23T02:48:50.273Z,93.28
2023-08-23T02:51:18.611Z,93.53
2023-08-23T02:53:46.776Z,93.56
2023-08-23T02:56:14.996Z,93.72
2023-08-23T02:58:43.243Z,93.49
2023-08-23T03:01:13.562Z,93.52
2023-08-23T03:03:41.848Z,94.01
2023-08-23T03:06:10.107Z,94.07
2023-08-23T03:08:38.382Z,93.96
2023-08-23T03:11:08.536Z,94.13
2023-08-23T03:13:36.871Z,94.24
2023-08-23T03:16:05.110Z,94.06
2023-08-23T03:18:35.050Z,93.92
2023-08-23T03:21:03.372Z,94.02
2023-08-23T03:23:33.033Z,93.78
2023-08-23T03:26:01.869Z,93.59
2023-08-23T03:28:30.447Z,93.84
2023-08-23T03:31:05.828Z,93.86
2023-08-23T03:33:34.624Z,93.71
2023-08-23T03:36:05.992Z,93.96
2023-08-23T03:38:34.228Z,94.17
2023-08-23T03:41:03.639Z,93.96
2023-08-23T03:43:32.009Z,94.14
2023-08-23T03:46:00.283Z,94.32
2023-08-23T03:48:28.528Z,94.26
2023-08-23T03:51:02.189Z,94.56
2023-08-23T03:53:30.628Z,94.66
2023-08-23T03:55:59.707Z,94.94
2023-08-23T03:58:27.949Z,94.91
2023-08-23T04:00:56.254Z,95.17
2023-08-23T04:03:24.680Z,94.95
2023-08-23T04:05:53.150Z,94.89
2023-08-23T04:08:21.336Z,94.79
2023-08-23T04:10:50.698Z,94.90
2023-08-23T04:13:19.244Z,94.62
2023-08-23T04:15:47.852Z,94.85
2023-08-23T04:18:16.176Z,94.85
2023-08-23T04:20:44.737Z,94.78
2023-08-23T04:23:13.070Z,94.94
2023-08-23T04:25:41.522Z,94.56
2023-08-23T04:28:09.973Z,94.63
2023-08-23T04:30:39.397Z,94.58
2023-08-23T04:33:07.683Z,94.90
2023-08-23T04:35:36.127Z,94.64
2023-08-23T04:38:05.868Z,94.93
2023-08-23T04:40:34.394Z,94.72
2023-08-23T04:43:03.263Z,94.66
2023-08-23T04:45:31.505Z,95.00
2023-08-23T04:48:01.023Z,94.67
2023-08-23T04:50:30.719Z,94.71
2023-08-23T04:52:59.029Z,94.84
2023-08-23T04:55:28.153Z,94.97
2023-08-23T04:57:56.456Z,95.12
2023-08-23T05:00:25.593Z,95.34
2023-08-23T05:02:53.867Z,95.28
2023-08-23T05:05:22.366Z,95.11
2023-08-23T05:07:54.361Z,95.04
2023-08-23T05:10:23.180Z,95.00
2023-08-23T05:12:53.238Z,95.19
2023-08-23T05:15:24.529Z,95.15
2023-08-23T05:17:53.579Z,95.05
2023-08-23T05:20:22.073Z,95.04
2023-08-23T05:22:53.873Z,94.99
2023-08-23T05:25:22.545Z,95.22
2023-08-23T05:27:50.918Z,95.42
2023-08-23T05:30:21.096Z,95.50
2023-08-23T05:32:49.678Z,95.06
2023-08-23T05:35:18.014Z,95.39
2023-08-23T05:37:49.407Z,95.50
2023-08-23T05:40:18.140Z,95.07
2023-08-23T05:42:46.354Z,95.41
2023-08-23T05:45:14.624Z,95.33
2023-08-23T05:47:42.994Z,95.25
2023-08-23T05:50:11.663Z,95.13
2023-08-23T05:52:39.897Z,95.01
2023-08-23T05:55:09.445Z,95.27
2023-08-23T05:57:37.746Z,95.13
2023-08-23T06:00:07.018Z,94.67
2023-08-23T06:02:40.849Z,95.07
2023-08-23T06:05:11.972Z,95.17
2023-08-23T06:07:40.886Z,95.27
2023-08-23T06:10:10.027Z,95.13
2023-08-23T06:12:38.300Z,94.88
2023-08-23T06:15:07.109Z,94.64
2023-08-23T06:17:35.756Z,94.70
2023-08-23T06:20:06.057Z,94.81
2023-08-23T06:22:34.433Z,94.61
2023-08-23T06:25:02.650Z,94.87
2023-08-23T06:27:30.880Z,95.14
2023-08-23T06:29:59.143Z,85.98
2023-08-23T06:32:27.329Z,74.07
2023-08-23T06:35:03.433Z,69.68
2023-08-23T06:37:32.270Z,62.44
2023-08-23T06:40:00.599Z,55.91
2023-08-23T06:42:30.020Z,51.87
2023-08-23T06:44:58.408Z,48.58
2023-08-23T06:47:26.272Z,49.42
2023-08-23T06:49:54.491Z,44.87
2023-08-23T06:52:29.595Z,45.60
2023-08-23T06:54:57.856Z,41.39
2023-08-23T06:57:30.253Z,40.73
2023-08-23T06:59:59.832Z,39.99
2023-08-23T07:02:28.238Z,39.16
2023-08-23T07:04:56.578Z,38.39
2023-08-23T07:07:24.906Z,38.38
2023-08-23T07:09:53.175Z,37.83
2023-08-23T07:12:21.867Z,38.18
2023-08-23T07:14:51.358Z,39.32
2023-08-23T07:17:19.656Z,38.61
2023-08-23T07:19:49.404Z,37.86
2023-08-23T07:22:17.587Z,36.48
2023-08-23T07:24:45.809Z,36.19
2023-08-23T07:27:14.008Z,36.04
2023-08-23T07:29:42.380Z,37.40
2023-08-23T07:32:10.645Z,39.92
2023-08-23T07:34:38.962Z,46.25
2023-08-23T07:37:08.212Z,49.10
2023-08-23T07:39:37.229Z,43.72
2023-08-23T07:42:05.475Z,39.47
2023-08-23T07:44:34.123Z,37.33
2023-08-23T07:47:02.477Z,36.78
2023-08-23T07:49:30.660Z,37.97
2023-08-23T07:51:58.890Z,42.74
2023-08-23T07:54:27.125Z,44.90
2023-08-23T07:56:56.383Z,46.40
2023-08-23T07:59:24.638Z,49.78
2023-08-23T08:01:52.925Z,54.26
2023-08-23T08:04:21.353Z,57.03
2023-08-23T08:06:49.635Z,57.95
2023-08-23T08:09:17.830Z,60.04
2023-08-23T08:11:46.019Z,61.54
2023-08-23T08:14:14.243Z,60.76
2023-08-23T08:16:42.560Z,57.37
2023-08-23T08:19:10.822Z,54.97
2023-08-23T08:21:39.160Z,51.53
2023-08-23T08:24:07.554Z,47.03
2023-08-23T08:26:35.732Z,49.13
2023-08-23T08:29:06.486Z,51.85
2023-08-23T08:31:35.133Z,49.46
2023-08-23T08:34:03.401Z,49.92
2023-08-23T08:36:31.663Z,48.84
2023-08-23T08:38:59.852Z,49.64
2023-08-23T08:41:28.179Z,46.45
2023-08-23T08:43:56.880Z,45.28
2023-08-23T08:46:25.430Z,43.28
2023-08-23T08:48:53.633Z,41.87
2023-08-23T08:51:22.855Z,40.16
2023-08-23T08:53:55.897Z,40.49
2023-08-23T08:56:26.714Z,38.94
2023-08-23T08:58:57.116Z,38.80
2023-08-23T09:01:34.411Z,39.35
2023-08-23T09:04:02.973Z,39.07
2023-08-23T09:06:32.318Z,39.57
2023-08-23T09:09:02.216Z,37.76
2023-08-23T09:11:30.402Z,38.23
2023-08-23T09:13:58.796Z,37.88
2023-08-23T09:16:28.605Z,38.41
2023-08-23T09:18:58.540Z,38.22
2023-08-23T09:21:26.788Z,37.56
2023-08-23T09:23:56.078Z,36.98
2023-08-23T09:26:24.902Z,35.93
2023-08-23T09:28:53.124Z,36.87
2023-08-23T09:31:21.369Z,36.19
2023-08-23T09:33:49.654Z,34.35
2023-08-23T09:36:31.892Z,35.07
2023-08-23T09:39:04.761Z,35.88
2023-08-23T09:41:33.583Z,36.70
2023-08-23T09:44:02.832Z,37.74
2023-08-23T09:46:33.466Z,35.71
2023-08-23T09:49:08.100Z,34.64
2023-08-23T09:51:38.415Z,35.10
2023-08-23T09:54:29.050Z,34.08
2023-08-23T09:57:07.870Z,34.43
2023-08-23T09:59:36.435Z,33.61
2023-08-23T10:02:11.606Z,34.19
2023-08-23T10:04:42.889Z,33.24
2023-08-23T10:07:12.427Z,34.23
2023-08-23T10:09:41.811Z,34.99
2023-08-23T10:12:12.094Z,35.30
2023-08-23T10:14:45.423Z,35.09
2023-08-23T10:17:14.964Z,33.23
2023-08-23T10:19:43.281Z,34.72
2023-08-23T10:22:11.671Z,35.31
2023-08-23T10:24:39.942Z,33.80
2023-08-23T10:27:09.828Z,33.96
2023-08-23T10:29:41.414Z,34.96
2023-08-23T10:32:14.603Z,34.31
2023-08-23T10:34:42.902Z,34.05
2023-08-23T10:37:23.679Z,34.80
2023-08-23T10:40:02.515Z,33.95
2023-08-23T10:42:30.823Z,33.19
2023-08-23T10:45:01.645Z,33.93
2023-08-23T10:47:30.645Z,33.92
2023-08-23T10:50:00.787Z,32.81
2023-08-23T10:52:29.056Z,33.45
2023-08-23T10:54:58.750Z,33.82
2023-08-23T10:57:27.219Z,34.54
2023-08-23T10:59:55.447Z,34.60
2023-08-23T11:02:23.876Z,34.93
2023-08-23T11:04:52.349Z,36.00
2023-08-23T11:07:26.944Z,36.19
2023-08-23T11:09:56.996Z,36.57
2023-08-23T11:12:25.175Z,36.75
2023-08-23T11:14:53.349Z,39.85
2023-08-23T11:17:22.500Z,43.32
2023-08-23T11:19:52.290Z,43.76
2023-08-23T11:22:20.527Z,44.61
2023-08-23T11:24:49.224Z,43.46
2023-08-23T11:27:17.630Z,43.21
2023-08-23T11:29:45.850Z,45.18
2023-08-23T11:32:14.487Z,46.15
2023-08-23T11:34:42.744Z,44.18
2023-08-23T11:37:11.872Z,42.70
2023-08-23T11:39:40.238Z,44.37
2023-08-23T11:42:08.544Z,43.05
2023-08-23T11:44:36.861Z,42.75
2023-08-23T11:47:05.160Z,43.65
2023-08-23T11:49:37.189Z,43.68
2023-08-23T11:52:23.265Z,42.88
2023-08-23T11:54:55.278Z,44.90
2023-08-23T11:57:23.519Z,43.55
2023-08-23T11:59:51.893Z,44.14
2023-08-23T12:02:22.674Z,42.49
2023-08-23T12:04:54.092Z,41.91
2023-08-23T12:07:34.249Z,40.39
2023-08-23T12:10:06.082Z,41.83
2023-08-23T12:12:34.271Z,41.57
2023-08-23T12:15:02.511Z,41.58
2023-08-23T12:17:33.831Z,44.34
2023-08-23T12:22:48.829Z,42.47
2023-08-23T12:25:17.053Z,44.01
2023-08-23T12:27:45.969Z,45.59
2023-08-23T12:30:15.269Z,44.79
2023-08-23T12:32:43.586Z,44.79
2023-08-23T12:35:11.830Z,47.40
2023-08-23T12:37:41.401Z,47.98
2023-08-23T12:40:11.337Z,46.38
2023-08-23T12:42:42.319Z,45.27
2023-08-23T12:45:11.387Z,42.94
2023-08-23T12:47:39.733Z,42.31
2023-08-23T12:50:08.177Z,42.63
2023-08-23T12:52:40.242Z,41.75
2023-08-23T12:56:11.328Z,42.81
2023-08-23T12:57:58.291Z,44.00
2023-08-23T13:00:31.565Z,44.55
2023-08-23T13:03:17.269Z,45.68
2023-08-23T13:06:16.213Z,47.26
2023-08-23T13:08:44.471Z,47.61
2023-08-23T13:11:16.413Z,47.69
2023-08-23T13:13:58.291Z,48.88
2023-08-23T13:16:28.958Z,47.01
2023-08-23T13:18:57.234Z,48.23
2023-08-23T13:21:25.977Z,47.56
2023-08-23T13:23:54.192Z,46.11
2023-08-23T13:26:22.380Z,46.44
2023-08-23T13:28:50.672Z,49.12
2023-08-23T13:31:26.426Z,48.98
2023-08-23T13:34:05.069Z,48.10
2023-08-23T13:36:51.475Z,47.55
2023-08-23T13:39:20.121Z,46.89
2023-08-23T13:41:48.407Z,47.08
2023-08-23T13:44:16.691Z,46.00
2023-08-23T13:46:44.989Z,47.04
2023-08-23T13:49:15.517Z,46.71
2023-08-23T13:51:43.733Z,45.84
2023-08-23T13:54:11.954Z,46.55
2023-08-23T13:56:40.483Z,46.93
2023-08-23T13:59:08.774Z,48.55
2023-08-23T14:01:40.957Z,49.17
2023-08-23T14:04:09.152Z,49.57
2023-08-23T14:06:38.360Z,48.31
2023-08-23T14:09:07.342Z,48.50
2023-08-23T14:11:54.411Z,48.79
2023-08-23T14:14:23.067Z,48.86
2023-08-23T14:16:52.175Z,49.91
2023-08-23T14:19:21.034Z,50.39
2023-08-23T14:21:49.755Z,50.88
2023-08-23T14:24:18.022Z,50.66
2023-08-23T14:26:46.275Z,49.96
2023-08-23T14:29:14.679Z,50.22
2023-08-23T14:31:42.973Z,50.42
2023-08-23T14:34:14.427Z,48.98
2023-08-23T14:36:44.612Z,50.74
2023-08-23T14:39:18.308Z,50.10
2023-08-23T14:41:51.015Z,49.30
2023-08-23T14:44:19.266Z,50.75
2023-08-23T14:46:47.516Z,49.21
2023-08-23T14:49:23.012Z,50.39
2023-08-23T14:51:50.873Z,50.15
2023-08-23T14:54:21.243Z,51.06
2023-08-23T14:56:49.778Z,51.27
2023-08-23T14:59:18.014Z,51.68
2023-08-23T15:01:45.896Z,51.28
2023-08-23T15:04:14.086Z,49.48
2023-08-23T15:06:45.661Z,50.58
2023-08-23T15:09:13.934Z,50.61
2023-08-23T15:11:42.128Z,50.03
2023-08-23T15:14:12.084Z,49.68
2023-08-23T15:16:40.470Z,50.09
2023-08-23T15:19:11.471Z,47.88
2023-08-23T15:21:39.635Z,48.96
2023-08-23T15:24:07.531Z,49.61
2023-08-23T15:26:35.663Z,49.90
2023-08-23T15:29:05.086Z,50.13
2023-08-23T15:31:39.851Z,49.15
2023-08-23T15:34:08.174Z,49.16
2023-08-23T15:36:36.463Z,48.36
2023-08-23T15:39:04.756Z,50.21
2023-08-23T15:41:32.985Z,48.39
2023-08-23T15:44:01.749Z,48.66
2023-08-23T15:46:29.988Z,50.42
2023-08-23T15:48:58.242Z,49.23
2023-08-23T15:51:26.668Z,49.67
2023-08-23T15:53:54.946Z,48.69
2023-08-23T15:56:23.244Z,49.34
2023-08-23T15:59:07.366Z,50.01
2023-08-23T16:01:35.663Z,49.07
2023-08-23T16:04:03.981Z,50.76
2023-08-23T16:06:31.821Z,50.25
2023-08-23T16:09:00.156Z,50.30
2023-08-23T16:11:29.498Z,50.22
2023-08-23T16:13:59.954Z,50.87
2023-08-23T16:16:27.828Z,51.27
2023-08-23T16:18:58.326Z,51.64
2023-08-23T16:21:37.911Z,51.46
2023-08-23T16:24:06.727Z,50.24
2023-08-23T16:26:37.361Z,50.70
2023-08-23T16:29:13.492Z,51.13
2023-08-23T16:31:45.000Z,50.59
2023-08-23T16:34:13.203Z,51.21
2023-08-23T16:36:41.019Z,51.25
2023-08-23T16:39:09.227Z,50.76
2023-08-23T16:41:37.114Z,51.52
2023-08-23T16:44:14.516Z,51.90
2023-08-23T16:46:43.317Z,51.64
2023-08-23T16:49:11.545Z,52.30
2023-08-23T16:51:40.545Z,51.93
2023-08-23T16:54:10.205Z,51.48
2023-08-23T16:56:38.506Z,52.45
2023-08-23T16:59:07.107Z,52.21
2023-08-23T17:01:35.431Z,53.87
2023-08-23T17:04:07.297Z,53.58
2023-08-23T17:06:35.533Z,53.17
2023-08-23T17:09:04.162Z,53.71
2023-08-23T17:11:32.463Z,55.23
2023-08-23T17:14:02.222Z,54.97
2023-08-23T17:16:32.371Z,55.72
2023-08-23T17:19:06.546Z,55.70
2023-08-23T17:21:36.030Z,56.14
2023-08-23T17:24:04.649Z,56.15
2023-08-23T17:29:05.981Z,56.22
2023-08-23T17:31:34.191Z,57.06
2023-08-23T17:34:02.424Z,57.31
2023-08-23T17:36:30.601Z,57.55
2023-08-23T17:38:58.857Z,57.56
2023-08-23T17:41:29.054Z,57.92
2023-08-23T17:44:00.204Z,57.26
2023-08-23T17:46:42.965Z,57.55
2023-08-23T17:49:12.494Z,58.01
2023-08-23T17:51:41.647Z,58.12
2023-08-23T17:54:10.697Z,58.26
2023-08-23T17:56:38.945Z,58.73
2023-08-23T17:59:07.324Z,58.82
2023-08-23T18:01:35.177Z,59.29
2023-08-23T18:04:03.391Z,59.53
2023-08-23T18:06:32.184Z,60.11
2023-08-23T18:09:00.414Z,60.37
2023-08-23T18:11:28.641Z,60.66
2023-08-23T18:13:57.057Z,60.97
2023-08-23T18:16:24.958Z,60.45
2023-08-23T18:18:53.142Z,61.04
2023-08-23T18:21:21.325Z,61.30
2023-08-23T18:23:49.764Z,61.88
2023-08-23T18:26:17.641Z,61.91
2023-08-23T18:28:45.847Z,62.97
2023-08-23T18:31:14.134Z,63.36
2023-08-23T18:33:42.392Z,63.57
2023-08-23T18:36:10.639Z,63.45
2023-08-23T18:38:39.283Z,63.30
2023-08-23T18:41:09.463Z,63.68
2023-08-23T18:43:37.774Z,64.45
2023-08-23T18:46:06.061Z,64.15
2023-08-23T18:48:34.328Z,64.38
2023-08-23T18:51:08.159Z,64.65
2023-08-23T18:53:36.459Z,64.43
2023-08-23T18:56:06.704Z,64.72
2023-08-23T18:58:34.917Z,64.65
2023-08-23T19:01:03.182Z,66.28
2023-08-23T19:03:31.449Z,65.79
2023-08-23T19:06:01.907Z,65.86
2023-08-23T19:08:30.090Z,65.55
2023-08-23T19:11:00.627Z,65.99
2023-08-23T19:13:28.804Z,65.91
2023-08-23T19:15:57.082Z,66.18
2023-08-23T19:18:25.312Z,66.44
2023-08-23T19:20:53.675Z,66.80
2023-08-23T19:23:21.924Z,67.71
2023-08-23T19:25:50.104Z,67.52
2023-08-23T19:28:18.560Z,67.25
2023-08-23T19:30:46.465Z,66.79
2023-08-23T19:33:14.623Z,67.77
2023-08-23T19:35:46.571Z,67.82
2023-08-23T19:38:14.806Z,68.60
2023-08-23T19:40:43.150Z,69.26
2023-08-23T19:43:11.391Z,69.35
2023-08-23T19:45:39.673Z,69.86
2023-08-23T19:48:25.395Z,70.44
2023-08-23T19:50:58.412Z,70.56
2023-08-23T19:53:26.727Z,71.16
2023-08-23T19:56:06.147Z,71.04
2023-08-23T19:58:35.601Z,71.34
2023-08-23T20:01:04.397Z,70.61
2023-08-23T20:03:33.018Z,70.48
2023-08-23T20:06:00.917Z,70.23
2023-08-23T20:08:29.138Z,70.79
2023-08-23T20:10:57.309Z,70.69
2023-08-23T20:13:25.533Z,71.43
2023-08-23T20:15:53.799Z,71.63
2023-08-23T20:18:22.535Z,71.58
2023-08-23T20:20:50.728Z,72.27
2023-08-23T20:23:19.711Z,72.00
2023-08-23T20:25:47.940Z,72.28
2023-08-23T20:28:16.224Z,72.88
2023-08-23T20:30:44.466Z,72.93
2023-08-23T20:33:12.703Z,73.31
2023-08-23T20:35:40.929Z,73.94
2023-08-23T20:38:09.112Z,74.56
2023-08-23T20:40:37.603Z,74.86
2023-08-23T20:43:08.265Z,74.42
2023-08-23T20:45:40.194Z,75.55
2023-08-23T20:48:10.668Z,75.94
2023-08-23T20:50:39.038Z,75.73
2023-08-23T20:53:07.317Z,75.81
2023-08-23T20:55:41.345Z,75.68
2023-08-23T20:58:09.575Z,75.62
2023-08-23T21:00:40.396Z,76.29
2023-08-23T21:03:08.679Z,76.18
2023-08-23T21:05:45.224Z,76.29
2023-08-23T21:08:13.523Z,76.25
2023-08-23T21:10:42.206Z,76.73
2023-08-23T21:13:13.640Z,77.21
2023-08-23T21:15:48.425Z,77.51
2023-08-23T21:18:17.324Z,77.78
2023-08-23T21:20:45.637Z,78.08
2023-08-23T21:23:13.878Z,78.24
2023-08-23T21:25:42.109Z,78.41
2023-08-23T21:28:10.550Z,78.89
2023-08-23T21:30:38.876Z,79.50
2023-08-23T21:33:07.354Z,79.40
2023-08-23T21:35:37.358Z,79.98
2023-08-23T21:38:05.712Z,80.06
2023-08-23T21:40:35.288Z,80.15
2023-08-23T21:43:03.502Z,80.88
2023-08-23T21:45:31.741Z,80.67
2023-08-23T21:48:00.970Z,80.87
2023-08-23T21:50:29.274Z,81.00
2023-08-23T21:52:57.967Z,81.20
2023-08-23T21:55:26.139Z,81.82
2023-08-23T21:57:54.480Z,81.56
2023-08-23T22:00:22.734Z,81.85
2023-08-23T22:02:50.952Z,81.96
2023-08-23T22:05:19.238Z,82.31
2023-08-23T22:07:47.764Z,82.37
2023-08-23T22:10:16.365Z,82.32
2023-08-23T22:12:44.601Z,82.35
2023-08-23T22:15:12.851Z,83.21
2023-08-23T22:17:41.300Z,82.83
2023-08-23T22:20:10.168Z,83.04
2023-08-23T22:22:38.539Z,83.48
2023-08-23T22:25:07.256Z,83.61
2023-08-23T22:27:35.477Z,83.82
2023-08-23T22:30:03.766Z,83.55
2023-08-23T22:32:32.024Z,83.80
2023-08-23T22:35:00.290Z,84.24
2023-08-23T22:37:28.528Z,84.23
2023-08-23T22:39:56.767Z,84.30
2023-08-23T22:42:28.914Z,84.52
2023-08-23T22:44:57.252Z,84.21
2023-08-23T22:47:25.912Z,84.33
2023-08-23T22:49:54.290Z,84.60
2023-08-23T22:52:22.495Z,84.28
2023-08-23T22:54:51.046Z,84.62
2023-08-23T22:57:19.352Z,84.92
2023-08-23T22:59:47.564Z,85.37
2023-08-23T23:02:15.782Z,85.30
2023-08-23T23:04:46.299Z,85.10
2023-08-23T23:07:15.241Z,85.06
2023-08-23T23:09:43.937Z,84.98
2023-08-23T23:12:11.801Z,85.04
2023-08-23T23:14:41.345Z,85.21
2023-08-23T23:17:09.596Z,85.10
2023-08-23T23:19:37.848Z,85.45
2023-08-23T23:22:06.348Z,85.95
2023-08-23T23:24:34.633Z,85.56
2023-08-23T23:27:03.503Z,85.80
2023-08-23T23:29:31.790Z,85.95
2023-08-23T23:32:00.573Z,86.10
2023-08-23T23:34:28.817Z,86.27
2023-08-23T23:36:57.056Z,85.95
2023-08-23T23:39:25.286Z,86.10
2023-08-23T23:41:53.465Z,86.09
2023-08-23T23:44:21.629Z,86.51
2023-08-23T23:46:49.923Z,86.53
2023-08-23T23:49:18.138Z,86.80
2023-08-23T23:51:46.358Z,86.54
2023-08-23T23:54:14.730Z,86.80
2023-08-23T23:56:43.356Z,86.36
2023-08-23T23:59:12.498Z,86.34
